sensor_id;sensor_type;location;lat;lon;timestamp;pressure;altitude;pressure_sealevel;temperature;humidity
967;BME280;56108;48.730;9.304;2023-03-31T00:00:29;96991.59;;;9.67;97.27
967;BME280;56108;48.730;9.304;2023-03-31T00:02:40;96990.13;;;9.63;98.08
967;BME280;56108;48.730;9.304;2023-03-31T00:04:50;96987.25;;;9.66;98.34
967;BME280;56108;48.730;9.304;2023-03-31T00:07:03;96989.44;;;9.73;98.40
967;BME280;56108;48.730;9.304;2023-03-31T00:09:14;96983.78;;;9.77;97.48
967;BME280;56108;48.730;9.304;2023-03-31T00:11:24;96978.44;;;9.66;97.63
967;BME280;56108;48.730;9.304;2023-03-31T00:13:32;96978.81;;;9.73;97.44
967;BME280;56108;48.730;9.304;2023-03-31T00:15:40;96973.72;;;9.70;97.44
967;BME280;56108;48.730;9.304;2023-03-31T00:17:51;96977.81;;;9.62;98.10
967;BME280;56108;48.730;9.304;2023-03-31T00:20:06;96964.72;;;9.59;98.31
967;BME280;56108;48.730;9.304;2023-03-31T00:22:16;96962.34;;;9.67;97.62
967;BME280;56108;48.730;9.304;2023-03-31T00:24:26;96956.66;;;9.61;97.85
967;BME280;56108;48.730;9.304;2023-03-31T00:26:37;96961.28;;;9.81;97.38
967;BME280;56108;48.730;9.304;2023-03-31T00:28:45;96957.69;;;9.82;97.04
967;BME280;56108;48.730;9.304;2023-03-31T00:30:59;96948.81;;;9.71;97.38
967;BME280;56108;48.730;9.304;2023-03-31T00:33:10;96954.53;;;9.77;97.14
967;BME280;56108;48.730;9.304;2023-03-31T00:35:19;96946.66;;;9.76;96.93
967;BME280;56108;48.730;9.304;2023-03-31T00:37:28;96944.63;;;9.79;96.00
967;BME280;56108;48.730;9.304;2023-03-31T00:39:37;96929.19;;;9.84;95.82
967;BME280;56108;48.730;9.304;2023-03-31T00:41:45;96924.84;;;9.83;96.18
967;BME280;56108;48.730;9.304;2023-03-31T00:44:14;96932.81;;;9.94;95.03
967;BME280;56108;48.730;9.304;2023-03-31T00:46:30;96932.81;;;10.06;94.76
967;BME280;56108;48.730;9.304;2023-03-31T00:48:46;96927.28;;;9.98;94.74
967;BME280;56108;48.730;9.304;2023-03-31T00:50:57;96931.50;;;10.00;95.06
967;BME280;56108;48.730;9.304;2023-03-31T00:53:08;96929.44;;;10.15;94.84
967;BME280;56108;48.730;9.304;2023-03-31T00:55:22;96922.19;;;10.06;94.40
967;BME280;56108;48.730;9.304;2023-03-31T00:57:33;96910.00;;;10.14;94.19
967;BME280;56108;48.730;9.304;2023-03-31T00:59:46;96916.50;;;10.10;94.33
967;BME280;56108;48.730;9.304;2023-03-31T01:01:57;96909.75;;;10.06;94.11
967;BME280;56108;48.730;9.304;2023-03-31T01:04:12;96913.72;;;10.01;94.93
967;BME280;56108;48.730;9.304;2023-03-31T01:06:26;96910.22;;;10.00;94.90
967;BME280;56108;48.730;9.304;2023-03-31T01:08:36;96915.69;;;10.10;94.79
967;BME280;56108;48.730;9.304;2023-03-31T01:10:47;96911.06;;;10.01;95.32
967;BME280;56108;48.730;9.304;2023-03-31T01:13:00;96910.34;;;9.99;95.24
967;BME280;56108;48.730;9.304;2023-03-31T01:15:11;96902.88;;;10.04;94.52
967;BME280;56108;48.730;9.304;2023-03-31T01:17:21;96889.56;;;10.04;94.60
967;BME280;56108;48.730;9.304;2023-03-31T01:19:43;96889.56;;;10.04;94.37
967;BME280;56108;48.730;9.304;2023-03-31T01:24:48;96862.25;;;10.02;94.00
967;BME280;56108;48.730;9.304;2023-03-31T01:27:18;96865.78;;;10.13;93.16
967;BME280;56108;48.730;9.304;2023-03-31T01:29:53;96864.56;;;10.06;93.37
967;BME280;56108;48.730;9.304;2023-03-31T01:32:39;96859.69;;;10.23;92.60
967;BME280;56108;48.730;9.304;2023-03-31T01:35:14;96853.19;;;10.15;91.91
967;BME280;56108;48.730;9.304;2023-03-31T01:38:04;96852.72;;;10.33;90.82
967;BME280;56108;48.730;9.304;2023-03-31T01:40:54;96854.91;;;10.28;91.42
967;BME280;56108;48.730;9.304;2023-03-31T01:43:09;96857.91;;;10.45;90.23
967;BME280;56108;48.730;9.304;2023-03-31T01:45:29;96856.78;;;10.48;89.74
967;BME280;56108;48.730;9.304;2023-03-31T01:47:44;96852.59;;;10.45;90.93
967;BME280;56108;48.730;9.304;2023-03-31T01:49:57;96854.03;;;10.38;91.08
967;BME280;56108;48.730;9.304;2023-03-31T01:52:18;96862.97;;;10.37;91.68
967;BME280;56108;48.730;9.304;2023-03-31T01:54:31;96870.13;;;10.37;91.20
967;BME280;56108;48.730;9.304;2023-03-31T01:56:51;96868.78;;;10.31;92.54
967;BME280;56108;48.730;9.304;2023-03-31T01:59:01;96875.22;;;10.29;94.27
967;BME280;56108;48.730;9.304;2023-03-31T02:01:15;96875.31;;;10.50;95.38
967;BME280;56108;48.730;9.304;2023-03-31T02:03:27;96870.09;;;10.48;96.43
967;BME280;56108;48.730;9.304;2023-03-31T02:05:41;96877.72;;;10.41;96.50
967;BME280;56108;48.730;9.304;2023-03-31T02:07:54;96875.22;;;10.29;97.59
967;BME280;56108;48.730;9.304;2023-03-31T02:10:06;96873.28;;;10.31;97.31
967;BME280;56108;48.730;9.304;2023-03-31T02:12:20;96871.47;;;10.31;98.76
967;BME280;56108;48.730;9.304;2023-03-31T02:14:31;96869.63;;;10.20;100.00
967;BME280;56108;48.730;9.304;2023-03-31T02:16:43;96867.72;;;10.34;96.75
967;BME280;56108;48.730;9.304;2023-03-31T02:18:57;96873.03;;;10.34;97.05
967;BME280;56108;48.730;9.304;2023-03-31T02:21:10;96867.97;;;10.31;96.58
967;BME280;56108;48.730;9.304;2023-03-31T02:23:23;96858.66;;;10.25;98.43
967;BME280;56108;48.730;9.304;2023-03-31T02:25:36;96855.03;;;10.26;99.01
967;BME280;56108;48.730;9.304;2023-03-31T02:28:04;96851.03;;;10.32;98.38
967;BME280;56108;48.730;9.304;2023-03-31T02:30:14;96841.59;;;10.28;99.04
967;BME280;56108;48.730;9.304;2023-03-31T02:32:25;96839.78;;;10.28;100.00
967;BME280;56108;48.730;9.304;2023-03-31T02:34:37;96834.09;;;10.22;100.00
967;BME280;56108;48.730;9.304;2023-03-31T02:36:45;96833.38;;;10.08;100.00
967;BME280;56108;48.730;9.304;2023-03-31T02:38:56;96819.13;;;9.98;100.00
967;BME280;56108;48.730;9.304;2023-03-31T02:41:06;96821.53;;;10.01;100.00
967;BME280;56108;48.730;9.304;2023-03-31T02:43:17;96810.56;;;9.94;100.00
967;BME280;56108;48.730;9.304;2023-03-31T02:45:43;96796.44;;;9.83;100.00
967;BME280;56108;48.730;9.304;2023-03-31T02:47:53;96778.91;;;9.80;100.00
967;BME280;56108;48.730;9.304;2023-03-31T02:50:02;96763.22;;;9.77;100.00
967;BME280;56108;48.730;9.304;2023-03-31T02:52:29;96741.47;;;9.83;100.00
967;BME280;56108;48.730;9.304;2023-03-31T02:55:10;96731.94;;;9.70;100.00
967;BME280;56108;48.730;9.304;2023-03-31T02:57:56;96724.72;;;9.72;100.00
967;BME280;56108;48.730;9.304;2023-03-31T03:00:16;96721.66;;;9.65;100.00
967;BME280;56108;48.730;9.304;2023-03-31T03:02:36;96722.16;;;9.59;100.00
967;BME280;56108;48.730;9.304;2023-03-31T03:05:00;96705.50;;;9.57;100.00
967;BME280;56108;48.730;9.304;2023-03-31T03:07:18;96698.50;;;9.45;100.00
967;BME280;56108;48.730;9.304;2023-03-31T03:09:37;96682.34;;;9.48;100.00
967;BME280;56108;48.730;9.304;2023-03-31T03:11:55;96681.38;;;9.49;100.00
967;BME280;56108;48.730;9.304;2023-03-31T03:14:16;96672.53;;;9.59;100.00
967;BME280;56108;48.730;9.304;2023-03-31T03:16:32;96663.38;;;9.52;100.00
967;BME280;56108;48.730;9.304;2023-03-31T03:18:43;96654.81;;;9.49;100.00
967;BME280;56108;48.730;9.304;2023-03-31T03:20:51;96657.09;;;9.53;100.00
967;BME280;56108;48.730;9.304;2023-03-31T03:22:59;96644.78;;;9.52;100.00
967;BME280;56108;48.730;9.304;2023-03-31T03:25:09;96644.69;;;9.31;100.00
967;BME280;56108;48.730;9.304;2023-03-31T03:27:18;96627.94;;;9.31;100.00
967;BME280;56108;48.730;9.304;2023-03-31T03:29:26;96624.44;;;9.30;100.00
967;BME280;56108;48.730;9.304;2023-03-31T03:31:37;96621.88;;;9.29;100.00
967;BME280;56108;48.730;9.304;2023-03-31T03:33:45;96621.31;;;9.14;100.00
967;BME280;56108;48.730;9.304;2023-03-31T03:35:53;96614.69;;;9.08;100.00
967;BME280;56108;48.730;9.304;2023-03-31T03:38:01;96612.97;;;9.07;100.00
967;BME280;56108;48.730;9.304;2023-03-31T03:40:10;96609.72;;;9.15;100.00
967;BME280;56108;48.730;9.304;2023-03-31T03:42:22;96609.13;;;9.11;100.00
967;BME280;56108;48.730;9.304;2023-03-31T03:44:30;96596.81;;;9.10;100.00
967;BME280;56108;48.730;9.304;2023-03-31T03:46:41;96588.97;;;9.09;100.00
967;BME280;56108;48.730;9.304;2023-03-31T03:48:49;96584.72;;;9.18;100.00
967;BME280;56108;48.730;9.304;2023-03-31T03:50:58;96584.25;;;9.12;100.00
967;BME280;56108;48.730;9.304;2023-03-31T03:53:06;96568.81;;;9.06;100.00
967;BME280;56108;48.730;9.304;2023-03-31T03:55:15;96564.47;;;9.05;100.00
967;BME280;56108;48.730;9.304;2023-03-31T03:57:23;96569.66;;;9.07;100.00
967;BME280;56108;48.730;9.304;2023-03-31T03:59:31;96565.44;;;9.15;100.00
967;BME280;56108;48.730;9.304;2023-03-31T04:01:42;96555.31;;;9.09;100.00
967;BME280;56108;48.730;9.304;2023-03-31T04:03:50;96553.75;;;9.07;100.00
967;BME280;56108;48.730;9.304;2023-03-31T04:05:58;96537.25;;;9.03;100.00
967;BME280;56108;48.730;9.304;2023-03-31T04:08:06;96538.66;;;9.07;100.00
967;BME280;56108;48.730;9.304;2023-03-31T04:10:14;96532.28;;;9.10;100.00
967;BME280;56108;48.730;9.304;2023-03-31T04:12:23;96524.91;;;9.13;100.00
967;BME280;56108;48.730;9.304;2023-03-31T04:14:31;96521.06;;;8.95;100.00
967;BME280;56108;48.730;9.304;2023-03-31T04:16:42;96518.06;;;8.88;100.00
967;BME280;56108;48.730;9.304;2023-03-31T04:18:50;96512.63;;;8.90;100.00
967;BME280;56108;48.730;9.304;2023-03-31T04:21:00;96489.84;;;8.76;100.00
967;BME280;56108;48.730;9.304;2023-03-31T04:23:11;96483.38;;;8.69;100.00
967;BME280;56108;48.730;9.304;2023-03-31T04:25:19;96472.53;;;8.72;100.00
967;BME280;56108;48.730;9.304;2023-03-31T04:27:27;96477.56;;;8.64;100.00
967;BME280;56108;48.730;9.304;2023-03-31T04:29:37;96472.16;;;8.66;100.00
967;BME280;56108;48.730;9.304;2023-03-31T04:31:49;96464.19;;;8.66;100.00
967;BME280;56108;48.730;9.304;2023-03-31T04:33:58;96460.34;;;8.70;100.00
967;BME280;56108;48.730;9.304;2023-03-31T04:36:11;96467.31;;;8.71;100.00
967;BME280;56108;48.730;9.304;2023-03-31T04:38:23;96464.06;;;8.78;100.00
967;BME280;56108;48.730;9.304;2023-03-31T04:40:37;96469.56;;;8.86;100.00
967;BME280;56108;48.730;9.304;2023-03-31T04:42:45;96471.63;;;8.94;100.00
967;BME280;56108;48.730;9.304;2023-03-31T04:44:53;96468.72;;;8.97;100.00
967;BME280;56108;48.730;9.304;2023-03-31T04:47:04;96474.13;;;9.07;100.00
967;BME280;56108;48.730;9.304;2023-03-31T04:49:12;96467.13;;;9.06;100.00
967;BME280;56108;48.730;9.304;2023-03-31T04:51:20;96466.06;;;9.08;100.00
967;BME280;56108;48.730;9.304;2023-03-31T04:53:28;96463.97;;;9.12;100.00
967;BME280;56108;48.730;9.304;2023-03-31T04:55:39;96456.81;;;9.24;100.00
967;BME280;56108;48.730;9.304;2023-03-31T04:57:47;96450.56;;;9.25;100.00
967;BME280;56108;48.730;9.304;2023-03-31T04:59:56;96452.75;;;9.20;100.00
967;BME280;56108;48.730;9.304;2023-03-31T05:02:07;96460.81;;;9.18;100.00
967;BME280;56108;48.730;9.304;2023-03-31T05:04:15;96454.16;;;9.24;100.00
967;BME280;56108;48.730;9.304;2023-03-31T05:06:23;96449.34;;;9.18;100.00
967;BME280;56108;48.730;9.304;2023-03-31T05:08:31;96444.41;;;9.24;100.00
967;BME280;56108;48.730;9.304;2023-03-31T05:10:39;96434.88;;;9.22;100.00
967;BME280;56108;48.730;9.304;2023-03-31T05:12:47;96437.00;;;9.28;100.00
967;BME280;56108;48.730;9.304;2023-03-31T05:14:56;96427.41;;;9.15;100.00
967;BME280;56108;48.730;9.304;2023-03-31T05:17:06;96435.63;;;9.12;100.00
967;BME280;56108;48.730;9.304;2023-03-31T05:19:15;96437.59;;;8.99;100.00
967;BME280;56108;48.730;9.304;2023-03-31T05:21:23;96444.25;;;8.94;100.00
967;BME280;56108;48.730;9.304;2023-03-31T05:23:34;96439.44;;;8.87;100.00
967;BME280;56108;48.730;9.304;2023-03-31T05:25:42;96453.66;;;8.86;100.00
967;BME280;56108;48.730;9.304;2023-03-31T05:27:49;96456.91;;;8.90;100.00
967;BME280;56108;48.730;9.304;2023-03-31T05:29:58;96464.16;;;8.88;100.00
967;BME280;56108;48.730;9.304;2023-03-31T05:32:08;96458.25;;;8.84;100.00
967;BME280;56108;48.730;9.304;2023-03-31T05:34:16;96454.13;;;8.92;100.00
967;BME280;56108;48.730;9.304;2023-03-31T05:36:24;96463.19;;;8.89;100.00
967;BME280;56108;48.730;9.304;2023-03-31T05:38:33;96446.00;;;8.72;100.00
967;BME280;56108;48.730;9.304;2023-03-31T05:40:41;96442.38;;;8.73;100.00
967;BME280;56108;48.730;9.304;2023-03-31T05:42:49;96437.94;;;8.62;100.00
967;BME280;56108;48.730;9.304;2023-03-31T05:44:57;96424.31;;;8.67;100.00
967;BME280;56108;48.730;9.304;2023-03-31T05:47:07;96419.22;;;8.75;100.00
967;BME280;56108;48.730;9.304;2023-03-31T05:49:15;96408.63;;;8.64;100.00
967;BME280;56108;48.730;9.304;2023-03-31T05:51:23;96398.25;;;8.72;100.00
967;BME280;56108;48.730;9.304;2023-03-31T05:53:31;96388.84;;;8.68;100.00
967;BME280;56108;48.730;9.304;2023-03-31T05:55:40;96374.31;;;8.51;100.00
967;BME280;56108;48.730;9.304;2023-03-31T05:57:48;96362.41;;;8.46;100.00
967;BME280;56108;48.730;9.304;2023-03-31T05:59:56;96351.03;;;8.55;100.00
967;BME280;56108;48.730;9.304;2023-03-31T06:02:04;96355.16;;;8.48;100.00
967;BME280;56108;48.730;9.304;2023-03-31T06:04:15;96339.84;;;8.51;100.00
967;BME280;56108;48.730;9.304;2023-03-31T06:06:23;96343.72;;;8.47;100.00
967;BME280;56108;48.730;9.304;2023-03-31T06:08:31;96332.72;;;8.52;100.00
967;BME280;56108;48.730;9.304;2023-03-31T06:10:39;96327.66;;;8.49;100.00
967;BME280;56108;48.730;9.304;2023-03-31T06:12:47;96319.56;;;8.50;100.00
967;BME280;56108;48.730;9.304;2023-03-31T06:14:55;96312.47;;;8.51;100.00
967;BME280;56108;48.730;9.304;2023-03-31T06:17:03;96300.78;;;8.53;100.00
967;BME280;56108;48.730;9.304;2023-03-31T06:19:15;96294.13;;;8.59;100.00
967;BME280;56108;48.730;9.304;2023-03-31T06:21:26;96296.19;;;8.55;100.00
967;BME280;56108;48.730;9.304;2023-03-31T06:23:35;96287.16;;;8.58;100.00
967;BME280;56108;48.730;9.304;2023-03-31T06:25:43;96285.00;;;8.52;100.00
967;BME280;56108;48.730;9.304;2023-03-31T06:27:55;96273.88;;;8.58;100.00
967;BME280;56108;48.730;9.304;2023-03-31T06:30:04;96267.84;;;8.67;100.00
967;BME280;56108;48.730;9.304;2023-03-31T06:32:12;96263.44;;;8.77;100.00
967;BME280;56108;48.730;9.304;2023-03-31T06:34:22;96268.28;;;8.72;100.00
967;BME280;56108;48.730;9.304;2023-03-31T06:36:31;96265.97;;;8.79;100.00
967;BME280;56108;48.730;9.304;2023-03-31T06:38:39;96272.94;;;8.80;100.00
967;BME280;56108;48.730;9.304;2023-03-31T06:40:48;96278.50;;;8.77;100.00
967;BME280;56108;48.730;9.304;2023-03-31T06:42:56;96265.56;;;8.62;100.00
967;BME280;56108;48.730;9.304;2023-03-31T06:45:06;96264.72;;;8.62;100.00
967;BME280;56108;48.730;9.304;2023-03-31T06:47:15;96264.59;;;8.63;100.00
967;BME280;56108;48.730;9.304;2023-03-31T06:49:26;96268.28;;;8.72;100.00
967;BME280;56108;48.730;9.304;2023-03-31T06:51:34;96280.00;;;8.91;100.00
967;BME280;56108;48.730;9.304;2023-03-31T06:53:42;96277.72;;;8.86;100.00
967;BME280;56108;48.730;9.304;2023-03-31T06:55:53;96290.22;;;8.95;100.00
967;BME280;56108;48.730;9.304;2023-03-31T06:58:08;96300.38;;;8.90;100.00
967;BME280;56108;48.730;9.304;2023-03-31T07:00:18;96309.19;;;8.91;100.00
967;BME280;56108;48.730;9.304;2023-03-31T07:02:27;96315.09;;;8.94;100.00
967;BME280;56108;48.730;9.304;2023-03-31T07:04:38;96327.44;;;8.84;100.00
967;BME280;56108;48.730;9.304;2023-03-31T07:06:46;96348.13;;;8.90;100.00
967;BME280;56108;48.730;9.304;2023-03-31T07:08:54;96355.00;;;8.93;100.00
967;BME280;56108;48.730;9.304;2023-03-31T07:11:02;96379.03;;;8.80;100.00
967;BME280;56108;48.730;9.304;2023-03-31T07:13:12;96378.31;;;8.89;100.00
967;BME280;56108;48.730;9.304;2023-03-31T07:15:20;96382.03;;;8.86;100.00
967;BME280;56108;48.730;9.304;2023-03-31T07:17:32;96370.72;;;8.84;100.00
967;BME280;56108;48.730;9.304;2023-03-31T07:19:47;96327.06;;;8.88;100.00
967;BME280;56108;48.730;9.304;2023-03-31T07:21:57;96315.09;;;8.94;100.00
967;BME280;56108;48.730;9.304;2023-03-31T07:24:09;96318.19;;;8.99;100.00
967;BME280;56108;48.730;9.304;2023-03-31T07:26:18;96326.25;;;9.09;100.00
967;BME280;56108;48.730;9.304;2023-03-31T07:28:28;96316.56;;;9.08;100.00
967;BME280;56108;48.730;9.304;2023-03-31T07:30:37;96226.63;;;9.05;100.00
967;BME280;56108;48.730;9.304;2023-03-31T07:32:47;96276.00;;;9.17;100.00
967;BME280;56108;48.730;9.304;2023-03-31T07:34:58;96312.22;;;9.28;100.00
967;BME280;56108;48.730;9.304;2023-03-31T07:37:10;96327.47;;;9.26;100.00
967;BME280;56108;48.730;9.304;2023-03-31T07:39:18;96340.16;;;9.22;100.00
967;BME280;56108;48.730;9.304;2023-03-31T07:41:26;96336.50;;;9.23;100.00
967;BME280;56108;48.730;9.304;2023-03-31T07:43:34;96345.22;;;9.25;100.00
967;BME280;56108;48.730;9.304;2023-03-31T07:45:42;96354.16;;;9.24;100.00
967;BME280;56108;48.730;9.304;2023-03-31T07:47:52;96359.25;;;9.37;100.00
967;BME280;56108;48.730;9.304;2023-03-31T07:50:08;96357.25;;;9.50;100.00
967;BME280;56108;48.730;9.304;2023-03-31T07:52:16;96362.50;;;9.40;100.00
967;BME280;56108;48.730;9.304;2023-03-31T07:54:25;96360.84;;;9.70;100.00
967;BME280;56108;48.730;9.304;2023-03-31T07:56:33;96369.72;;;9.80;100.00
967;BME280;56108;48.730;9.304;2023-03-31T07:58:41;96360.44;;;9.75;100.00
967;BME280;56108;48.730;9.304;2023-03-31T08:00:50;96356.75;;;9.87;100.00
967;BME280;56108;48.730;9.304;2023-03-31T08:02:58;96362.53;;;10.02;100.00
967;BME280;56108;48.730;9.304;2023-03-31T08:05:13;96367.47;;;10.06;100.00
967;BME280;56108;48.730;9.304;2023-03-31T08:07:22;96364.84;;;10.16;100.00
967;BME280;56108;48.730;9.304;2023-03-31T08:09:30;96357.22;;;10.32;100.00
967;BME280;56108;48.730;9.304;2023-03-31T08:11:38;96361.72;;;10.32;100.00
967;BME280;56108;48.730;9.304;2023-03-31T08:13:46;96354.91;;;10.39;100.00
967;BME280;56108;48.730;9.304;2023-03-31T08:15:58;96347.19;;;10.36;100.00
967;BME280;56108;48.730;9.304;2023-03-31T08:18:06;96345.28;;;10.67;100.00
967;BME280;56108;48.730;9.304;2023-03-31T08:20:18;96347.00;;;10.87;100.00
967;BME280;56108;48.730;9.304;2023-03-31T08:22:26;96349.78;;;10.95;100.00
967;BME280;56108;48.730;9.304;2023-03-31T08:24:34;96343.63;;;11.05;100.00
967;BME280;56108;48.730;9.304;2023-03-31T08:26:42;96347.28;;;11.04;100.00
967;BME280;56108;48.730;9.304;2023-03-31T08:28:50;96331.44;;;10.92;100.00
967;BME280;56108;48.730;9.304;2023-03-31T08:31:02;96331.16;;;11.05;100.00
967;BME280;56108;48.730;9.304;2023-03-31T08:33:11;96327.66;;;11.05;100.00
967;BME280;56108;48.730;9.304;2023-03-31T08:35:22;96325.41;;;10.90;100.00
967;BME280;56108;48.730;9.304;2023-03-31T08:37:31;96318.66;;;10.96;100.00
967;BME280;56108;48.730;9.304;2023-03-31T08:39:42;96321.34;;;11.25;100.00
967;BME280;56108;48.730;9.304;2023-03-31T08:41:54;96324.16;;;11.14;100.00
967;BME280;56108;48.730;9.304;2023-03-31T08:44:06;96319.91;;;11.31;100.00
967;BME280;56108;48.730;9.304;2023-03-31T08:46:17;96313.00;;;11.47;100.00
967;BME280;56108;48.730;9.304;2023-03-31T08:48:29;96320.88;;;11.49;100.00
967;BME280;56108;48.730;9.304;2023-03-31T08:50:46;96318.06;;;11.50;100.00
967;BME280;56108;48.730;9.304;2023-03-31T08:53:02;96328.31;;;11.55;100.00
967;BME280;56108;48.730;9.304;2023-03-31T08:55:14;96330.09;;;11.64;100.00
967;BME280;56108;48.730;9.304;2023-03-31T08:57:34;96322.78;;;11.66;100.00
967;BME280;56108;48.730;9.304;2023-03-31T08:59:47;96325.88;;;11.62;100.00
967;BME280;56108;48.730;9.304;2023-03-31T09:02:04;96317.59;;;11.74;100.00
967;BME280;56108;48.730;9.304;2023-03-31T09:04:28;96316.16;;;11.90;100.00
967;BME280;56108;48.730;9.304;2023-03-31T09:06:48;96322.03;;;11.93;100.00
967;BME280;56108;48.730;9.304;2023-03-31T09:09:01;96317.66;;;12.02;100.00
967;BME280;56108;48.730;9.304;2023-03-31T09:11:24;96316.28;;;12.25;100.00
967;BME280;56108;48.730;9.304;2023-03-31T09:13:58;96319.34;;;12.58;100.00
967;BME280;56108;48.730;9.304;2023-03-31T09:16:12;96306.22;;;12.83;100.00
967;BME280;56108;48.730;9.304;2023-03-31T09:18:26;96301.03;;;12.99;100.00
967;BME280;56108;48.730;9.304;2023-03-31T09:20:39;96283.19;;;13.17;99.08
967;BME280;56108;48.730;9.304;2023-03-31T09:23:01;96281.31;;;13.36;98.46
967;BME280;56108;48.730;9.304;2023-03-31T09:25:15;96277.09;;;13.51;92.37
967;BME280;56108;48.730;9.304;2023-03-31T09:27:26;96280.34;;;13.89;92.04
967;BME280;56108;48.730;9.304;2023-03-31T09:29:40;96281.38;;;14.38;88.37
967;BME280;56108;48.730;9.304;2023-03-31T09:31:49;96280.13;;;14.67;82.56
967;BME280;56108;48.730;9.304;2023-03-31T09:34:00;96280.72;;;15.68;79.08
967;BME280;56108;48.730;9.304;2023-03-31T09:38:24;96305.38;;;16.58;67.18
967;BME280;56108;48.730;9.304;2023-03-31T09:40:33;96312.53;;;17.05;64.73
967;BME280;56108;48.730;9.304;2023-03-31T09:42:41;96318.38;;;16.47;65.04
967;BME280;56108;48.730;9.304;2023-03-31T09:44:49;96310.00;;;15.94;66.80
967;BME280;56108;48.730;9.304;2023-03-31T09:46:59;96310.84;;;15.13;69.99
967;BME280;56108;48.730;9.304;2023-03-31T09:49:15;96293.63;;;15.16;70.83
967;BME280;56108;48.730;9.304;2023-03-31T09:51:27;96298.59;;;14.86;73.23
967;BME280;56108;48.730;9.304;2023-03-31T09:53:44;96296.81;;;15.35;70.48
967;BME280;56108;48.730;9.304;2023-03-31T09:56:00;96316.06;;;15.63;66.09
967;BME280;56108;48.730;9.304;2023-03-31T09:58:12;96312.81;;;16.09;61.15
967;BME280;56108;48.730;9.304;2023-03-31T10:00:22;96319.81;;;17.42;55.35
967;BME280;56108;48.730;9.304;2023-03-31T10:02:36;96344.97;;;18.10;50.62
967;BME280;56108;48.730;9.304;2023-03-31T10:04:45;96328.63;;;18.56;50.24
967;BME280;56108;48.730;9.304;2023-03-31T10:06:53;96336.28;;;19.61;48.48
967;BME280;56108;48.730;9.304;2023-03-31T10:09:04;96332.63;;;19.69;46.51
967;BME280;56108;48.730;9.304;2023-03-31T10:11:14;96334.41;;;20.11;46.34
967;BME280;56108;48.730;9.304;2023-03-31T10:13:23;96340.13;;;20.29;45.52
967;BME280;56108;48.730;9.304;2023-03-31T10:15:36;96329.50;;;20.21;45.55
967;BME280;56108;48.730;9.304;2023-03-31T10:17:46;96331.41;;;21.10;43.92
967;BME280;56108;48.730;9.304;2023-03-31T10:19:59;96325.44;;;20.73;43.18
967;BME280;56108;48.730;9.304;2023-03-31T10:22:15;96336.59;;;21.05;43.00
967;BME280;56108;48.730;9.304;2023-03-31T10:24:36;96322.41;;;19.92;44.10
967;BME280;56108;48.730;9.304;2023-03-31T10:26:47;96309.22;;;18.75;46.09
967;BME280;56108;48.730;9.304;2023-03-31T10:28:56;96302.53;;;19.08;45.28
967;BME280;56108;48.730;9.304;2023-03-31T10:31:04;96302.91;;;18.54;45.89
967;BME280;56108;48.730;9.304;2023-03-31T10:33:16;96309.03;;;18.77;43.50
967;BME280;56108;48.730;9.304;2023-03-31T10:35:33;96308.13;;;19.27;45.45
967;BME280;56108;48.730;9.304;2023-03-31T10:37:42;96295.47;;;19.49;44.41
967;BME280;56108;48.730;9.304;2023-03-31T10:39:59;96285.28;;;19.94;44.29
967;BME280;56108;48.730;9.304;2023-03-31T10:42:09;96298.03;;;19.36;44.11
967;BME280;56108;48.730;9.304;2023-03-31T10:44:34;96273.34;;;18.75;45.80
967;BME280;56108;48.730;9.304;2023-03-31T10:46:46;96276.06;;;18.31;47.50
967;BME280;56108;48.730;9.304;2023-03-31T10:48:58;96276.53;;;18.19;45.22
967;BME280;56108;48.730;9.304;2023-03-31T10:51:11;96275.91;;;18.03;47.24
967;BME280;56108;48.730;9.304;2023-03-31T10:53:21;96276.53;;;18.34;48.47
967;BME280;56108;48.730;9.304;2023-03-31T10:55:38;96261.63;;;18.17;46.74
967;BME280;56108;48.730;9.304;2023-03-31T10:57:53;96253.25;;;17.44;48.89
967;BME280;56108;48.730;9.304;2023-03-31T11:00:17;96264.38;;;18.38;48.20
967;BME280;56108;48.730;9.304;2023-03-31T11:05:17;96243.41;;;18.19;45.45
967;BME280;56108;48.730;9.304;2023-03-31T11:07:52;96233.78;;;17.57;46.05
967;BME280;56108;48.730;9.304;2023-03-31T11:10:28;96256.69;;;16.61;47.48
967;BME280;56108;48.730;9.304;2023-03-31T11:12:46;96242.56;;;16.36;48.10
967;BME280;56108;48.730;9.304;2023-03-31T11:15:05;96241.41;;;16.31;49.81
967;BME280;56108;48.730;9.304;2023-03-31T11:17:26;96232.88;;;16.27;49.93
967;BME280;56108;48.730;9.304;2023-03-31T11:19:46;96216.84;;;15.39;51.56
967;BME280;56108;48.730;9.304;2023-03-31T11:22:06;96215.03;;;14.82;53.24
967;BME280;56108;48.730;9.304;2023-03-31T11:24:25;96216.97;;;14.40;59.49
967;BME280;56108;48.730;9.304;2023-03-31T11:26:43;96228.16;;;13.24;72.71
967;BME280;56108;48.730;9.304;2023-03-31T11:29:04;96239.63;;;11.63;89.65
967;BME280;56108;48.730;9.304;2023-03-31T11:31:24;96303.53;;;9.67;100.00
967;BME280;56108;48.730;9.304;2023-03-31T11:33:47;96303.38;;;8.65;100.00
967;BME280;56108;48.730;9.304;2023-03-31T11:36:10;96312.88;;;8.24;100.00
967;BME280;56108;48.730;9.304;2023-03-31T11:38:31;96310.25;;;8.13;100.00
967;BME280;56108;48.730;9.304;2023-03-31T11:40:50;96298.81;;;8.01;100.00
967;BME280;56108;48.730;9.304;2023-03-31T11:43:03;96312.91;;;8.01;100.00
967;BME280;56108;48.730;9.304;2023-03-31T11:45:18;96302.09;;;8.04;100.00
967;BME280;56108;48.730;9.304;2023-03-31T11:47:29;96299.56;;;7.92;100.00
967;BME280;56108;48.730;9.304;2023-03-31T11:49:40;96293.28;;;8.04;100.00
967;BME280;56108;48.730;9.304;2023-03-31T11:51:53;96296.19;;;8.01;100.00
967;BME280;56108;48.730;9.304;2023-03-31T11:54:03;96297.16;;;8.00;100.00
967;BME280;56108;48.730;9.304;2023-03-31T11:56:16;96297.50;;;8.06;100.00
967;BME280;56108;48.730;9.304;2023-03-31T11:58:30;96293.38;;;8.36;100.00
967;BME280;56108;48.730;9.304;2023-03-31T12:00:45;96288.06;;;8.68;100.00
967;BME280;56108;48.730;9.304;2023-03-31T12:03:00;96284.69;;;9.19;100.00
967;BME280;56108;48.730;9.304;2023-03-31T12:05:12;96292.91;;;9.67;100.00
967;BME280;56108;48.730;9.304;2023-03-31T12:07:23;96299.22;;;10.16;100.00
967;BME280;56108;48.730;9.304;2023-03-31T12:09:43;96286.03;;;10.94;100.00